Time;durP1;ratioP1;P1;durP2;ratioP2;P2;SDS_P1;SDS_P2;PMS_P1;PMS_P2;Temp;Humidity;BMP_temperature;BMP_pressure;BME280_temperature;BME280_humidity;BME280_pressure;Samples;Min_cycle;Max_cycle;Signal;HPM_P1;HPM_P2
2022/05/06 00:01:37;;;;;;;10.55;4.68;;;;;;;;;;5050427;28;20468;-69
2022/05/06 00:04:04;;;;;;;9.98;5.00;;;;;;;;;;5050456;28;20029;-69
2022/05/06 00:06:30;;;;;;;7.55;4.60;;;;;;;;;;5050263;28;20033;-69
2022/05/06 00:08:56;;;;;;;14.43;5.15;;;;;;;;;;5050437;28;20017;-69
2022/05/06 00:11:23;;;;;;;10.75;5.38;;;;;;;;;;5050957;28;20040;-69
2022/05/06 00:13:48;;;;;;;9.63;5.50;;;;;;;;;;5050844;28;20033;-69
2022/05/06 00:16:15;;;;;;;11.05;5.30;;;;;;;;;;5050342;28;20025;-68
2022/05/06 00:18:40;;;;;;;11.40;4.72;;;;;;;;;;5050288;28;20443;-69
2022/05/06 00:21:06;;;;;;;9.27;4.70;;;;;;;;;;5050456;28;20025;-69
2022/05/06 00:23:31;;;;;;;9.02;4.80;;;;;;;;;;5049828;28;20033;-69
2022/05/06 00:25:57;;;;;;;8.93;4.15;;;;;;;;;;5050011;28;20037;-69
2022/05/06 00:28:22;;;;;;;10.55;4.97;;;;;;;;;;5049761;28;20025;-69
2022/05/06 00:30:48;;;;;;;7.80;4.45;;;;;;;;;;5050142;28;20370;-69
2022/05/06 00:33:13;;;;;;;10.48;4.72;;;;;;;;;;5050028;28;20401;-70
2022/05/06 00:35:41;;;;;;;9.10;4.82;;;;;;;;;;5050145;28;20021;-69
2022/05/06 00:38:06;;;;;;;8.85;4.85;;;;;;;;;;5049982;28;20130;-68
2022/05/06 00:40:32;;;;;;;11.40;4.90;;;;;;;;;;5050089;28;20466;-68
2022/05/06 00:42:57;;;;;;;9.18;4.78;;;;;;;;;;5049433;28;20594;-69
2022/05/06 00:45:27;;;;;;;9.65;4.93;;;;;;;;;;5049606;28;20079;-70
2022/05/06 00:47:53;;;;;;;7.82;4.80;;;;;;;;;;5049912;28;20029;-68
2022/05/06 00:50:18;;;;;;;9.45;5.20;;;;;;;;;;5050091;28;20024;-69
2022/05/06 00:52:44;;;;;;;9.07;4.85;;;;;;;;;;5050143;28;20033;-70
2022/05/06 00:55:10;;;;;;;9.48;5.22;;;;;;;;;;5049839;28;20025;-68
2022/05/06 00:57:36;;;;;;;10.95;5.18;;;;;;;;;;5053893;28;20119;-68
2022/05/06 01:00:19;;;;;;;7.75;5.10;;;;;;;;;;5056412;28;20534;-69
2022/05/06 01:02:45;;;;;;;11.88;5.05;;;;;;;;;;5056110;28;20021;-69
2022/05/06 01:05:14;;;;;;;9.73;4.80;;;;;;;;;;5056611;28;20032;-69
2022/05/06 01:07:41;;;;;;;7.70;4.80;;;;;;;;;;5056353;28;20480;-69
2022/05/06 01:10:07;;;;;;;8.55;5.03;;;;;;;;;;5056656;28;20031;-69
2022/05/06 01:12:33;;;;;;;11.60;5.00;;;;;;;;;;5056265;28;20029;-69
2022/05/06 01:14:59;;;;;;;8.50;4.80;;;;;;;;;;5056315;28;20036;-69
2022/05/06 01:17:24;;;;;;;8.10;4.93;;;;;;;;;;5056493;28;20025;-69
2022/05/06 01:19:49;;;;;;;10.30;4.97;;;;;;;;;;5056151;28;20025;-70
2022/05/06 01:22:16;;;;;;;7.88;4.85;;;;;;;;;;5056637;28;20087;-68
2022/05/06 01:24:41;;;;;;;8.07;4.30;;;;;;;;;;5056153;28;20021;-69
2022/05/06 01:27:11;;;;;;;8.15;4.95;;;;;;;;;;5056383;28;20369;-69
2022/05/06 01:29:38;;;;;;;9.52;4.82;;;;;;;;;;5056004;28;20562;-69
2022/05/06 01:32:04;;;;;;;8.68;5.10;;;;;;;;;;5056234;28;20025;-68
2022/05/06 01:34:32;;;;;;;10.65;5.20;;;;;;;;;;5055753;28;20033;-68
2022/05/06 01:37:01;;;;;;;10.18;4.82;;;;;;;;;;5056184;28;20316;-68
2022/05/06 01:39:30;;;;;;;8.30;4.75;;;;;;;;;;5056034;28;20040;-67
2022/05/06 01:42:01;;;;;;;10.77;4.68;;;;;;;;;;5056309;28;20056;-68
2022/05/06 01:44:30;;;;;;;10.05;4.63;;;;;;;;;;5055732;28;20083;-68
2022/05/06 01:46:58;;;;;;;13.15;4.85;;;;;;;;;;5055972;28;20036;-68
2022/05/06 01:49:25;;;;;;;8.45;4.65;;;;;;;;;;5055854;28;20369;-68
2022/05/06 01:51:53;;;;;;;8.30;4.68;;;;;;;;;;5055943;28;20060;-68
2022/05/06 01:54:18;;;;;;;7.97;4.90;;;;;;;;;;5055831;28;20029;-68
2022/05/06 01:56:46;;;;;;;11.40;5.10;;;;;;;;;;5055844;28;20081;-69
2022/05/06 01:59:12;;;;;;;10.13;4.50;;;;;;;;;;5055892;28;20025;-68
2022/05/06 02:01:37;;;;;;;8.10;4.68;;;;;;;;;;5056333;28;20481;-69
2022/05/06 02:06:47;;;;;;;8.57;4.07;;;;;;;;;;5056043;28;20499;-68
2022/05/06 02:09:12;;;;;;;7.70;4.20;;;;;;;;;;5052205;28;20024;-68
2022/05/06 02:11:38;;;;;;;8.63;4.40;;;;;;;;;;5052668;28;20025;-68
2022/05/06 02:14:03;;;;;;;6.88;4.10;;;;;;;;;;5052529;28;20028;-70
2022/05/06 02:16:29;;;;;;;7.97;4.10;;;;;;;;;;5052185;28;20017;-69
2022/05/06 02:18:55;;;;;;;7.00;3.75;;;;;;;;;;5052483;28;20020;-70
2022/05/06 02:21:20;;;;;;;8.55;3.75;;;;;;;;;;5052532;28;20030;-69
2022/05/06 02:23:45;;;;;;;8.25;4.30;;;;;;;;;;5052216;28;20025;-69
2022/05/06 02:26:11;;;;;;;5.78;3.67;;;;;;;;;;5052374;28;20402;-68
2022/05/06 02:28:36;;;;;;;6.57;3.58;;;;;;;;;;5052113;28;20420;-68
2022/05/06 02:33:46;;;;;;;6.10;3.78;;;;;;;;;;5052513;28;20166;-68
2022/05/06 02:36:11;;;;;;;6.55;3.60;;;;;;;;;;5052079;28;20104;-68
2022/05/06 02:38:37;;;;;;;7.47;3.63;;;;;;;;;;5052182;28;20503;-68
2022/05/06 02:41:03;;;;;;;7.68;3.63;;;;;;;;;;5051881;28;20359;-69
2022/05/06 02:43:28;;;;;;;4.22;3.30;;;;;;;;;;5051619;28;20240;-69
2022/05/06 02:45:54;;;;;;;7.32;3.53;;;;;;;;;;5051456;28;20021;-69
2022/05/06 02:48:19;;;;;;;8.90;3.38;;;;;;;;;;5052064;28;20025;-68
2022/05/06 02:50:45;;;;;;;8.80;3.42;;;;;;;;;;5051896;28;20457;-69
2022/05/06 02:53:10;;;;;;;6.85;3.40;;;;;;;;;;5051989;28;20388;-69
2022/05/06 02:55:35;;;;;;;5.35;3.70;;;;;;;;;;5051562;28;20025;-69
2022/05/06 02:58:03;;;;;;;5.45;3.47;;;;;;;;;;5052424;28;20023;-68
2022/05/06 03:00:29;;;;;;;6.00;3.30;;;;;;;;;;5051177;28;20103;-69
2022/05/06 03:02:56;;;;;;;5.45;3.35;;;;;;;;;;5051507;28;20125;-70
2022/05/06 03:05:22;;;;;;;6.13;3.40;;;;;;;;;;5051448;28;20021;-69
2022/05/06 03:07:48;;;;;;;12.25;3.85;;;;;;;;;;5051994;28;20218;-70
2022/05/06 03:10:13;;;;;;;6.28;3.80;;;;;;;;;;5051606;28;20238;-68
2022/05/06 03:12:42;;;;;;;6.65;3.92;;;;;;;;;;5051716;28;20033;-69
2022/05/06 03:15:08;;;;;;;6.80;3.60;;;;;;;;;;5051294;28;20028;-69
2022/05/06 03:17:34;;;;;;;6.68;3.78;;;;;;;;;;5051419;28;20021;-69
2022/05/06 03:20:00;;;;;;;7.30;3.75;;;;;;;;;;5051634;28;20185;-70
2022/05/06 03:22:26;;;;;;;4.50;3.00;;;;;;;;;;5051687;28;20196;-70
2022/05/06 03:24:52;;;;;;;5.40;3.55;;;;;;;;;;5051195;28;20127;-69
2022/05/06 03:30:04;;;;;;;5.57;3.10;;;;;;;;;;5051231;28;20072;-69
2022/05/06 03:32:31;;;;;;;4.93;3.40;;;;;;;;;;5051165;28;20032;-69
2022/05/06 03:34:57;;;;;;;4.65;3.10;;;;;;;;;;5050785;28;20024;-68
2022/05/06 03:37:22;;;;;;;6.45;3.42;;;;;;;;;;5051051;28;20031;-69
2022/05/06 03:39:48;;;;;;;6.75;3.40;;;;;;;;;;5050828;28;20025;-69
2022/05/06 03:42:13;;;;;;;7.38;3.50;;;;;;;;;;5050899;28;20578;-69
2022/05/06 03:44:39;;;;;;;5.88;3.70;;;;;;;;;;5051177;28;20025;-69
2022/05/06 03:47:05;;;;;;;5.75;3.80;;;;;;;;;;5050758;28;20049;-69
2022/05/06 03:49:30;;;;;;;6.50;3.80;;;;;;;;;;5050754;28;20025;-68
2022/05/06 03:51:56;;;;;;;4.95;3.30;;;;;;;;;;5050841;28;20032;-68
2022/05/06 03:54:21;;;;;;;10.75;3.63;;;;;;;;;;5050881;28;20021;-68
2022/05/06 03:56:47;;;;;;;6.28;3.53;;;;;;;;;;5050581;28;20017;-69
2022/05/06 03:59:12;;;;;;;4.47;3.30;;;;;;;;;;5050770;28;20370;-68
2022/05/06 04:01:38;;;;;;;4.32;2.90;;;;;;;;;;5050774;28;20079;-68
2022/05/06 04:04:04;;;;;;;7.50;3.40;;;;;;;;;;5050563;28;20025;-68
2022/05/06 04:06:30;;;;;;;7.47;3.40;;;;;;;;;;5050398;28;20123;-68
2022/05/06 04:08:55;;;;;;;5.25;3.35;;;;;;;;;;5050511;28;20163;-69
2022/05/06 04:11:20;;;;;;;6.00;3.20;;;;;;;;;;5050145;28;20408;-69
2022/05/06 04:13:47;;;;;;;6.60;3.60;;;;;;;;;;5050550;28;20028;-69
2022/05/06 04:16:14;;;;;;;5.50;3.67;;;;;;;;;;5050006;28;20025;-69
2022/05/06 04:18:39;;;;;;;5.68;3.38;;;;;;;;;;5050516;28;20017;-68
2022/05/06 04:23:48;;;;;;;6.85;3.20;;;;;;;;;;5050345;28;20059;-70
2022/05/06 04:26:14;;;;;;;7.50;3.17;;;;;;;;;;5049580;28;20381;-69
2022/05/06 04:28:40;;;;;;;7.68;3.50;;;;;;;;;;5050197;28;20039;-70
2022/05/06 04:31:07;;;;;;;5.65;3.45;;;;;;;;;;5049526;28;20515;-70
2022/05/06 04:33:34;;;;;;;5.18;3.50;;;;;;;;;;5050038;28;20136;-69
2022/05/06 04:36:00;;;;;;;4.90;3.20;;;;;;;;;;5050140;28;20102;-68
2022/05/06 04:38:26;;;;;;;6.43;3.22;;;;;;;;;;5050132;28;20159;-68
2022/05/06 04:40:56;;;;;;;7.43;3.03;;;;;;;;;;5049847;28;20647;-68
2022/05/06 04:43:22;;;;;;;9.75;3.00;;;;;;;;;;5049823;28;20589;-68
2022/05/06 04:45:49;;;;;;;5.20;2.85;;;;;;;;;;5049282;28;20044;-70
2022/05/06 04:48:14;;;;;;;8.85;3.17;;;;;;;;;;5049940;28;20021;-69
2022/05/06 04:50:41;;;;;;;7.47;3.45;;;;;;;;;;5049723;28;20491;-69
2022/05/06 04:53:09;;;;;;;5.85;3.28;;;;;;;;;;5050301;28;20035;-69
2022/05/06 04:55:35;;;;;;;7.03;3.10;;;;;;;;;;5049822;28;20024;-70
2022/05/06 04:58:02;;;;;;;4.95;2.63;;;;;;;;;;5049558;28;20035;-69
2022/05/06 05:00:28;;;;;;;5.80;2.90;;;;;;;;;;5049399;28;20021;-69
2022/05/06 05:02:53;;;;;;;9.43;3.25;;;;;;;;;;5049606;28;20079;-69
2022/05/06 05:05:19;;;;;;;6.78;2.90;;;;;;;;;;5049538;28;20067;-69
2022/05/06 05:07:44;;;;;;;6.05;3.00;;;;;;;;;;5049462;28;20045;-70
2022/05/06 05:10:10;;;;;;;7.43;3.15;;;;;;;;;;5049835;28;20025;-69
2022/05/06 05:12:36;;;;;;;5.78;3.45;;;;;;;;;;5049949;28;20037;-69
2022/05/06 05:15:02;;;;;;;5.00;3.25;;;;;;;;;;5049494;28;20095;-69
2022/05/06 05:17:28;;;;;;;8.00;3.33;;;;;;;;;;5049614;28;20040;-69
2022/05/06 05:19:53;;;;;;;6.30;3.50;;;;;;;;;;5049524;28;20432;-69
2022/05/06 05:22:19;;;;;;;6.60;3.50;;;;;;;;;;5049648;28;20084;-69
2022/05/06 05:24:46;;;;;;;6.07;3.17;;;;;;;;;;5049857;28;20087;-69
2022/05/06 05:27:13;;;;;;;5.38;3.05;;;;;;;;;;5049429;28;20480;-69
2022/05/06 05:29:38;;;;;;;7.97;3.33;;;;;;;;;;5049720;28;20028;-68
2022/05/06 05:32:05;;;;;;;5.20;3.38;;;;;;;;;;5049647;28;20036;-68
2022/05/06 05:34:30;;;;;;;5.85;3.33;;;;;;;;;;5050234;28;20025;-69
2022/05/06 05:36:55;;;;;;;8.57;3.05;;;;;;;;;;5049386;28;20064;-69
2022/05/06 05:39:21;;;;;;;8.05;3.40;;;;;;;;;;5050581;28;20487;-69
2022/05/06 05:41:46;;;;;;;6.32;3.33;;;;;;;;;;5050059;28;20481;-69
2022/05/06 05:49:40;;;;;;;8.38;3.20;;;;;;;;;;5055085;28;20027;-69
2022/05/06 05:52:05;;;;;;;5.50;2.88;;;;;;;;;;5053707;28;20434;-68
2022/05/06 05:54:31;;;;;;;5.53;3.00;;;;;;;;;;5053192;28;20145;-68
2022/05/06 05:56:57;;;;;;;9.48;3.17;;;;;;;;;;5052980;28;20040;-68
2022/05/06 05:59:23;;;;;;;5.45;3.22;;;;;;;;;;5053000;28;20029;-68
2022/05/06 06:01:49;;;;;;;4.13;3.03;;;;;;;;;;5052843;28;20028;-67
2022/05/06 06:04:15;;;;;;;5.55;3.10;;;;;;;;;;5052956;28;20031;-69
2022/05/06 06:06:41;;;;;;;5.70;3.13;;;;;;;;;;5052891;28;20523;-69
2022/05/06 06:09:08;;;;;;;8.77;3.50;;;;;;;;;;5052616;28;20052;-69
2022/05/06 06:11:33;;;;;;;8.68;3.40;;;;;;;;;;5052667;28;20384;-69
2022/05/06 06:13:59;;;;;;;8.35;3.22;;;;;;;;;;5052623;28;20495;-69
2022/05/06 06:16:26;;;;;;;6.95;2.85;;;;;;;;;;5052542;28;20385;-69
2022/05/06 06:18:51;;;;;;;8.70;2.72;;;;;;;;;;5052848;28;20104;-69
2022/05/06 06:21:17;;;;;;;5.07;2.67;;;;;;;;;;5052399;28;20532;-69
2022/05/06 06:23:42;;;;;;;4.88;2.95;;;;;;;;;;5052745;28;20493;-69
2022/05/06 06:26:08;;;;;;;5.68;3.25;;;;;;;;;;5052194;28;20041;-69
2022/05/06 06:28:34;;;;;;;6.22;2.95;;;;;;;;;;5052119;28;20558;-69
2022/05/06 06:30:59;;;;;;;3.67;2.83;;;;;;;;;;5052652;28;20235;-68
2022/05/06 06:33:25;;;;;;;4.78;2.63;;;;;;;;;;5052355;28;20396;-68
2022/05/06 06:35:50;;;;;;;5.57;2.88;;;;;;;;;;5052197;28;20197;-68
2022/05/06 06:38:15;;;;;;;6.32;2.83;;;;;;;;;;5034163;28;20098;-68
2022/05/06 06:40:41;;;;;;;6.30;3.00;;;;;;;;;;5052301;28;20456;-70
2022/05/06 06:43:07;;;;;;;5.32;2.85;;;;;;;;;;5051642;28;20051;-69
2022/05/06 06:45:35;;;;;;;5.28;2.83;;;;;;;;;;5051722;28;20065;-69
2022/05/06 06:48:00;;;;;;;4.65;2.85;;;;;;;;;;5051592;28;20083;-69
2022/05/06 06:50:26;;;;;;;5.53;2.65;;;;;;;;;;5052144;28;20051;-69
2022/05/06 06:52:52;;;;;;;5.78;3.00;;;;;;;;;;5051720;28;20111;-69
2022/05/06 06:55:17;;;;;;;5.88;3.10;;;;;;;;;;5051608;28;20108;-69
2022/05/06 06:57:43;;;;;;;6.63;2.63;;;;;;;;;;5051581;28;20033;-68
2022/05/06 07:00:09;;;;;;;6.60;3.00;;;;;;;;;;5051804;28;20029;-67
2022/05/06 07:02:36;;;;;;;7.60;2.72;;;;;;;;;;5051442;28;20456;-69
2022/05/06 07:05:02;;;;;;;9.65;3.00;;;;;;;;;;5051830;28;20436;-68
2022/05/06 07:12:56;;;;;;;4.50;2.70;;;;;;;;;;5051570;28;20074;-68
2022/05/06 07:15:23;;;;;;;5.88;2.80;;;;;;;;;;5051523;28;20435;-69
2022/05/06 07:17:48;;;;;;;5.85;3.00;;;;;;;;;;5051264;28;20060;-69
2022/05/06 07:20:14;;;;;;;5.65;2.58;;;;;;;;;;5033560;28;20110;-69
2022/05/06 07:22:39;;;;;;;9.05;3.30;;;;;;;;;;5050993;28;20036;-69
2022/05/06 07:25:06;;;;;;;7.72;2.67;;;;;;;;;;5052001;28;20032;-69
2022/05/06 07:27:36;;;;;;;4.93;2.33;;;;;;;;;;5051191;28;20175;-69
2022/05/06 07:30:06;;;;;;;5.00;2.50;;;;;;;;;;5051261;28;20492;-69
2022/05/06 07:32:32;;;;;;;5.57;2.28;;;;;;;;;;5051105;28;20125;-69
2022/05/06 07:34:58;;;;;;;5.85;2.70;;;;;;;;;;5051536;28;20115;-69
2022/05/06 07:37:23;;;;;;;7.38;2.70;;;;;;;;;;5050486;28;20079;-69
2022/05/06 07:39:49;;;;;;;8.45;2.38;;;;;;;;;;5050927;28;20230;-68
2022/05/06 07:42:14;;;;;;;14.32;3.03;;;;;;;;;;5050753;28;20095;-71
2022/05/06 07:44:40;;;;;;;5.70;2.83;;;;;;;;;;5050805;28;20110;-70
2022/05/06 07:47:05;;;;;;;5.97;2.78;;;;;;;;;;5050376;28;20017;-71
2022/05/06 07:49:31;;;;;;;6.05;3.08;;;;;;;;;;5050930;28;20051;-71
2022/05/06 07:51:56;;;;;;;6.75;2.42;;;;;;;;;;5050670;28;20052;-70
2022/05/06 07:54:22;;;;;;;4.15;2.20;;;;;;;;;;5050598;28;20036;-69
2022/05/06 07:56:47;;;;;;;4.40;2.28;;;;;;;;;;5050704;28;20025;-69
2022/05/06 07:59:13;;;;;;;4.22;2.35;;;;;;;;;;5050294;28;20036;-69
2022/05/06 08:04:37;;;;;;;7.65;2.72;;;;;;;;;;5050740;28;20496;-69
2022/05/06 08:07:04;;;;;;;7.93;2.60;;;;;;;;;;5049650;28;20588;-69
2022/05/06 08:09:30;;;;;;;7.18;2.50;;;;;;;;;;5050254;28;20082;-70
2022/05/06 08:11:56;;;;;;;7.43;3.00;;;;;;;;;;5049991;28;20033;-70
2022/05/06 08:14:21;;;;;;;6.60;2.47;;;;;;;;;;5048676;28;20056;-70
2022/05/06 08:16:49;;;;;;;3.53;1.83;;;;;;;;;;5048782;28;20031;-70
2022/05/06 08:19:14;;;;;;;4.32;2.10;;;;;;;;;;5050053;28;20085;-69
2022/05/06 08:21:40;;;;;;;3.15;2.08;;;;;;;;;;5050626;28;20439;-69
2022/05/06 08:24:06;;;;;;;4.40;1.98;;;;;;;;;;5050164;28;20033;-69
2022/05/06 08:26:33;;;;;;;6.30;2.20;;;;;;;;;;5050234;28;20154;-69
2022/05/06 08:28:58;;;;;;;4.35;2.20;;;;;;;;;;5049783;28;20393;-69
2022/05/06 08:31:24;;;;;;;7.45;2.00;;;;;;;;;;5050104;28;20028;-69
2022/05/06 08:33:49;;;;;;;4.38;2.10;;;;;;;;;;5049925;28;20061;-68
2022/05/06 08:36:15;;;;;;;8.07;2.10;;;;;;;;;;5050226;28;20032;-69
2022/05/06 08:38:41;;;;;;;3.35;2.10;;;;;;;;;;5049898;28;20284;-69
2022/05/06 08:41:10;;;;;;;5.03;2.00;;;;;;;;;;5049899;28;20032;-68
2022/05/06 08:43:37;;;;;;;3.40;1.92;;;;;;;;;;5049615;28;20045;-69
2022/05/06 08:51:33;;;;;;;3.50;1.88;;;;;;;;;;5050315;28;20032;-69
2022/05/06 08:53:59;;;;;;;3.45;1.90;;;;;;;;;;5050043;28;20029;-69
2022/05/06 08:56:24;;;;;;;3.97;2.00;;;;;;;;;;5050101;28;20441;-69
2022/05/06 08:58:50;;;;;;;3.90;2.10;;;;;;;;;;5049648;28;20067;-69
2022/05/06 09:01:20;;;;;;;4.53;2.00;;;;;;;;;;5049871;28;20272;-69
2022/05/06 09:03:48;;;;;;;3.75;2.20;;;;;;;;;;5049701;28;20044;-69
2022/05/06 09:06:23;;;;;;;3.30;1.85;;;;;;;;;;5049975;28;20025;-69
2022/05/06 09:08:52;;;;;;;3.78;2.03;;;;;;;;;;5049379;28;20480;-69
2022/05/06 09:12:40;;;;;;;2.63;1.90;;;;;;;;;;5050433;28;20033;-69
2022/05/06 09:14:06;;;;;;;5.75;2.15;;;;;;;;;;5049532;28;20198;-69
2022/05/06 09:16:41;;;;;;;2.97;1.70;;;;;;;;;;5050203;28;20025;-69
2022/05/06 09:19:27;;;;;;;2.80;1.70;;;;;;;;;;5052358;28;20389;-70
2022/05/06 09:22:13;;;;;;;2.92;1.90;;;;;;;;;;5053453;28;20555;-68
2022/05/06 09:24:40;;;;;;;3.72;1.90;;;;;;;;;;5053688;28;20539;-70
2022/05/06 09:27:07;;;;;;;3.30;1.85;;;;;;;;;;5053642;28;20466;-69
2022/05/06 09:29:37;;;;;;;5.60;1.70;;;;;;;;;;5053206;28;20035;-69
2022/05/06 09:32:16;;;;;;;3.43;1.67;;;;;;;;;;5054075;28;20037;-69
2022/05/06 09:34:43;;;;;;;6.03;1.60;;;;;;;;;;5053166;28;20385;-69
2022/05/06 09:37:09;;;;;;;3.03;1.67;;;;;;;;;;5053425;28;20029;-72
2022/05/06 09:39:38;;;;;;;5.22;1.90;;;;;;;;;;5042697;28;20086;-69
2022/05/06 09:42:05;;;;;;;3.47;1.73;;;;;;;;;;5047857;28;20488;-68
2022/05/06 09:44:32;;;;;;;5.75;1.60;;;;;;;;;;5044342;28;20121;-68
2022/05/06 09:47:12;;;;;;;4.50;1.80;;;;;;;;;;5049675;28;20032;-67
2022/05/06 09:49:43;;;;;;;5.45;1.70;;;;;;;;;;5049348;28;20029;-70
2022/05/06 09:52:13;;;;;;;3.03;1.77;;;;;;;;;;5051986;28;20112;-69
2022/05/06 09:54:44;;;;;;;3.83;1.63;;;;;;;;;;5050808;28;20029;-71
2022/05/06 09:57:15;;;;;;;2.85;1.80;;;;;;;;;;5042298;28;20035;-70
2022/05/06 09:59:41;;;;;;;6.82;2.20;;;;;;;;;;5051463;28;20047;-68
2022/05/06 10:02:08;;;;;;;8.07;2.45;;;;;;;;;;5052157;28;20620;-73
2022/05/06 10:04:35;;;;;;;3.67;1.80;;;;;;;;;;5052923;28;20025;-73
2022/05/06 10:07:02;;;;;;;2.50;1.50;;;;;;;;;;5052210;28;20036;-71
2022/05/06 10:09:35;;;;;;;3.00;1.85;;;;;;;;;;5050062;28;20025;-78
2022/05/06 10:12:04;;;;;;;7.38;2.03;;;;;;;;;;5046715;28;20024;-72
2022/05/06 10:14:31;;;;;;;4.93;2.10;;;;;;;;;;5050358;28;20032;-73
2022/05/06 10:16:56;;;;;;;7.85;2.35;;;;;;;;;;5051759;28;20061;-79
2022/05/06 10:19:45;;;;;;;5.88;2.25;;;;;;;;;;5033380;28;20455;-73
2022/05/06 10:22:10;;;;;;;4.18;2.10;;;;;;;;;;5051731;28;20117;-68
2022/05/06 10:24:49;;;;;;;3.72;1.92;;;;;;;;;;5051398;28;20123;-75
2022/05/06 10:33:16;;;;;;;8.82;2.38;;;;;;;;;;5051789;28;20082;-73
2022/05/06 10:35:44;;;;;;;4.82;2.22;;;;;;;;;;5050536;28;20025;-69
2022/05/06 10:38:18;;;;;;;7.32;1.95;;;;;;;;;;5051109;28;20029;-69
2022/05/06 10:40:52;;;;;;;5.10;2.10;;;;;;;;;;5051147;28;20423;-72
2022/05/06 10:43:53;;;;;;;3.95;2.22;;;;;;;;;;5055314;28;20094;-72
2022/05/06 10:46:35;;;;;;;4.55;2.05;;;;;;;;;;5006141;28;20026;-70
2022/05/06 10:49:34;;;;;;;7.70;1.98;;;;;;;;;;5044519;28;20041;-71
2022/05/06 10:52:38;;;;;;;5.30;1.67;;;;;;;;;;5062878;28;20527;-72
2022/05/06 10:55:04;;;;;;;7.38;1.98;;;;;;;;;;5021201;28;20045;-70
2022/05/06 10:57:31;;;;;;;3.35;1.70;;;;;;;;;;5050961;28;20036;-73
2022/05/06 11:00:09;;;;;;;4.38;1.80;;;;;;;;;;5050508;28;20033;-70
2022/05/06 11:02:36;;;;;;;5.05;1.85;;;;;;;;;;5051019;28;20431;-71
2022/05/06 11:05:04;;;;;;;3.50;1.73;;;;;;;;;;5050520;28;20116;-71
2022/05/06 11:07:32;;;;;;;2.45;1.67;;;;;;;;;;5051260;28;20029;-70
2022/05/06 11:09:58;;;;;;;3.33;1.67;;;;;;;;;;5050058;28;20078;-72
2022/05/06 11:12:33;;;;;;;4.35;1.80;;;;;;;;;;5038029;28;20041;-68
2022/05/06 11:15:02;;;;;;;2.65;1.50;;;;;;;;;;5045540;28;20037;-70
2022/05/06 11:17:27;;;;;;;2.97;1.30;;;;;;;;;;5054947;28;20443;-67
2022/05/06 11:19:56;;;;;;;3.38;1.70;;;;;;;;;;5049739;28;20469;-74
2022/05/06 11:22:23;;;;;;;3.35;1.85;;;;;;;;;;5050102;28;20481;-71
2022/05/06 11:24:48;;;;;;;4.45;1.92;;;;;;;;;;5049883;28;20496;-72
2022/05/06 11:27:15;;;;;;;4.25;1.98;;;;;;;;;;5049808;28;20074;-72
2022/05/06 11:29:59;;;;;;;5.03;2.30;;;;;;;;;;5049633;28;20036;-70
2022/05/06 11:32:29;;;;;;;4.13;2.13;;;;;;;;;;5050545;28;20021;-69
2022/05/06 11:34:55;;;;;;;3.47;1.80;;;;;;;;;;5050009;28;20032;-72
2022/05/06 11:37:26;;;;;;;4.18;2.10;;;;;;;;;;5050592;28;20477;-69
2022/05/06 11:39:52;;;;;;;4.53;1.95;;;;;;;;;;5050211;28;20039;-72
2022/05/06 11:42:24;;;;;;;5.75;2.17;;;;;;;;;;5048846;28;20558;-74
2022/05/06 11:47:43;;;;;;;3.30;2.03;;;;;;;;;;5042079;28;20434;-73
2022/05/06 11:50:09;;;;;;;4.90;2.13;;;;;;;;;;5035838;28;20472;-68
2022/05/06 11:52:37;;;;;;;7.07;2.17;;;;;;;;;;5033660;28;20030;-68
2022/05/06 11:55:03;;;;;;;5.43;2.33;;;;;;;;;;5039696;28;20114;-66
2022/05/06 11:57:29;;;;;;;4.10;2.10;;;;;;;;;;5049909;28;20032;-71
2022/05/06 11:59:54;;;;;;;6.05;2.92;;;;;;;;;;5044577;28;20018;-70
2022/05/06 12:02:20;;;;;;;4.63;2.50;;;;;;;;;;5041097;28;20489;-69
2022/05/06 12:04:45;;;;;;;5.07;2.40;;;;;;;;;;5038262;28;20091;-69
2022/05/06 12:07:11;;;;;;;7.93;4.10;;;;;;;;;;5034210;28;20052;-68
2022/05/06 12:09:44;;;;;;;21.27;11.63;;;;;;;;;;5033605;28;20060;-73
2022/05/06 12:12:10;;;;;;;12.57;7.53;;;;;;;;;;5029752;28;20041;-69
2022/05/06 12:14:37;;;;;;;9.73;5.05;;;;;;;;;;5028925;28;20026;-70
2022/05/06 12:17:11;;;;;;;5.88;4.05;;;;;;;;;;5028230;28;20025;-69
2022/05/06 12:19:41;;;;;;;8.05;4.75;;;;;;;;;;5027730;28;20116;-70
2022/05/06 12:22:23;;;;;;;;;;;;;;;;;;5028293;28;20025;-69
2022/05/06 12:24:55;;;;;;;4.63;2.40;;;;;;;;;;5027838;28;19944;-69
2022/05/06 12:27:27;;;;;;;6.15;2.20;;;;;;;;;;5027654;28;20068;-69
2022/05/06 12:29:53;;;;;;;4.32;2.35;;;;;;;;;;5027097;28;20027;-70
2022/05/06 12:32:19;;;;;;;4.70;3.00;;;;;;;;;;5029514;28;20029;-70
2022/05/06 12:34:44;;;;;;;3.65;2.22;;;;;;;;;;5029139;28;20036;-70
2022/05/06 12:37:18;;;;;;;6.53;2.97;;;;;;;;;;5029442;28;20022;-70
2022/05/06 12:39:45;;;;;;;3.53;2.17;;;;;;;;;;5029471;28;20132;-69
2022/05/06 12:42:15;;;;;;;6.78;3.13;;;;;;;;;;5029076;28;20121;-70
2022/05/06 12:44:41;;;;;;;4.95;2.50;;;;;;;;;;5029204;28;20055;-70
2022/05/06 12:50:03;;;;;;;3.33;1.95;;;;;;;;;;5029172;28;20099;-69
2022/05/06 12:52:31;;;;;;;4.10;2.33;;;;;;;;;;5032498;28;20108;-70
2022/05/06 12:54:56;;;;;;;4.22;2.03;;;;;;;;;;5044258;28;20040;-71
2022/05/06 12:57:23;;;;;;;4.10;1.95;;;;;;;;;;5031684;28;20029;-70
2022/05/06 12:59:49;;;;;;;4.53;1.70;;;;;;;;;;5030889;28;20032;-70
2022/05/06 13:02:15;;;;;;;3.45;1.58;;;;;;;;;;5049035;28;20407;-70
2022/05/06 13:04:40;;;;;;;4.32;1.73;;;;;;;;;;5049182;28;20075;-71
2022/05/06 13:07:05;;;;;;;5.35;1.77;;;;;;;;;;5048647;28;20075;-70
2022/05/06 13:09:31;;;;;;;5.22;1.77;;;;;;;;;;5036728;28;20028;-69
2022/05/06 13:11:56;;;;;;;4.60;1.80;;;;;;;;;;5028908;28;20026;-70
2022/05/06 13:14:22;;;;;;;4.53;2.10;;;;;;;;;;5028731;28;20022;-71
2022/05/06 13:16:48;;;;;;;5.82;1.90;;;;;;;;;;5028957;28;20370;-71
2022/05/06 13:19:13;;;;;;;8.20;2.15;;;;;;;;;;5028999;28;20025;-70
2022/05/06 13:21:39;;;;;;;5.35;2.30;;;;;;;;;;5028652;28;20411;-69
2022/05/06 13:24:07;;;;;;;5.13;1.65;;;;;;;;;;5028899;28;20037;-68
2022/05/06 13:26:33;;;;;;;4.07;2.08;;;;;;;;;;5040556;28;20025;-70
2022/05/06 13:28:59;;;;;;;3.63;1.90;;;;;;;;;;5048927;28;20036;-70
2022/05/06 13:31:24;;;;;;;5.15;1.40;;;;;;;;;;5048025;28;20029;-70
2022/05/06 13:33:50;;;;;;;4.00;1.65;;;;;;;;;;5048935;28;20032;-70
2022/05/06 13:36:16;;;;;;;4.47;1.38;;;;;;;;;;5048650;28;20111;-70
2022/05/06 13:38:41;;;;;;;2.08;1.15;;;;;;;;;;5048703;28;20400;-70
2022/05/06 13:41:06;;;;;;;3.30;1.20;;;;;;;;;;5048029;28;20505;-69
2022/05/06 13:43:32;;;;;;;3.17;1.20;;;;;;;;;;5048777;28;20032;-69
2022/05/06 13:45:58;;;;;;;2.65;1.17;;;;;;;;;;5048040;28;20021;-68
2022/05/06 13:48:23;;;;;;;3.20;1.50;;;;;;;;;;5048431;28;20029;-69
2022/05/06 13:50:49;;;;;;;5.47;1.40;;;;;;;;;;5047172;28;20024;-70
2022/05/06 13:53:15;;;;;;;5.00;1.67;;;;;;;;;;5047325;28;20040;-70
2022/05/06 14:01:08;;;;;;;6.78;2.33;;;;;;;;;;5047609;28;20086;-70
2022/05/06 14:03:34;;;;;;;5.05;2.38;;;;;;;;;;5048476;28;20029;-69
2022/05/06 14:06:00;;;;;;;9.27;2.80;;;;;;;;;;5050883;28;20026;-68
2022/05/06 14:08:25;;;;;;;12.13;2.90;;;;;;;;;;5051972;28;20081;-70
2022/05/06 14:10:51;;;;;;;5.15;2.20;;;;;;;;;;5051699;28;20048;-70
2022/05/06 14:13:16;;;;;;;5.70;2.50;;;;;;;;;;5051694;28;20100;-71
2022/05/06 14:15:42;;;;;;;4.65;2.38;;;;;;;;;;5051452;28;20272;-70
2022/05/06 14:18:08;;;;;;;4.63;2.00;;;;;;;;;;5047173;28;20024;-82
2022/05/06 14:20:33;;;;;;;2.97;1.52;;;;;;;;;;5044476;28;20116;-78
2022/05/06 14:22:58;;;;;;;4.00;1.88;;;;;;;;;;5036833;28;20018;-71
2022/05/06 14:25:24;;;;;;;4.47;2.30;;;;;;;;;;5031841;28;20037;-74
2022/05/06 14:27:49;;;;;;;4.50;1.80;;;;;;;;;;5051128;28;20020;-77
2022/05/06 14:30:15;;;;;;;5.75;2.17;;;;;;;;;;5051088;28;20064;-71
2022/05/06 14:32:41;;;;;;;6.40;1.38;;;;;;;;;;5051314;28;20024;-79
2022/05/06 14:35:21;;;;;;;3.95;1.45;;;;;;;;;;5041789;28;20029;-74
2022/05/06 14:37:49;;;;;;;2.00;1.20;;;;;;;;;;5031627;28;20100;-70
2022/05/06 14:40:17;;;;;;;3.08;0.98;;;;;;;;;;5031553;28;20021;-68
2022/05/06 14:42:42;;;;;;;1.92;1.15;;;;;;;;;;5031362;28;20095;-69
2022/05/06 14:45:08;;;;;;;2.17;1.10;;;;;;;;;;5031087;28;20033;-69
2022/05/06 14:47:34;;;;;;;2.28;1.00;;;;;;;;;;5031087;28;20034;-69
2022/05/06 14:49:59;;;;;;;2.05;1.27;;;;;;;;;;5031315;28;20659;-68
2022/05/06 14:52:25;;;;;;;1.40;1.00;;;;;;;;;;5030952;28;20124;-69
2022/05/06 14:54:55;;;;;;;2.47;1.00;;;;;;;;;;5030904;28;20431;-70
2022/05/06 14:57:20;;;;;;;2.60;1.10;;;;;;;;;;5031295;28;20109;-69
2022/05/06 14:59:46;;;;;;;2.25;0.73;;;;;;;;;;5030831;28;20116;-69
2022/05/06 15:02:11;;;;;;;1.35;0.80;;;;;;;;;;5030938;28;20056;-70
2022/05/06 15:04:37;;;;;;;1.15;0.73;;;;;;;;;;5031084;28;20060;-69
2022/05/06 15:07:03;;;;;;;2.83;0.98;;;;;;;;;;5030665;28;20025;-71
2022/05/06 15:09:28;;;;;;;0.80;0.65;;;;;;;;;;5031297;28;20386;-69
2022/05/06 15:11:53;;;;;;;0.95;0.65;;;;;;;;;;5030351;28;20068;-69
2022/05/06 15:14:19;;;;;;;1.58;0.70;;;;;;;;;;5030830;28;20047;-69
2022/05/06 15:16:44;;;;;;;1.73;1.00;;;;;;;;;;5030203;28;20473;-69
2022/05/06 15:19:25;;;;;;;1.10;0.60;;;;;;;;;;5030985;28;20037;-70
2022/05/06 15:21:53;;;;;;;1.60;0.70;;;;;;;;;;5031517;28;20068;-69
2022/05/06 15:24:21;;;;;;;1.95;0.60;;;;;;;;;;5050466;28;20029;-69
2022/05/06 15:26:47;;;;;;;1.08;0.60;;;;;;;;;;5050285;28;20024;-70
2022/05/06 15:29:13;;;;;;;1.42;0.60;;;;;;;;;;5047728;28;20032;-70
2022/05/06 15:31:39;;;;;;;0.90;0.50;;;;;;;;;;5030451;28;20026;-69